MMGL/GDL METAR and TAF weather

Enter ICAO airport designator
Station Type Date Time Source
MMGL METAR 2020/07/11 15:56 UTC NOAA

MMGL 111556Z 05010KT 10SM SCT300 24/12 A3026 RMK 8/001 ISOL AC


Station Type Date Time Source
MMGL Decoded METAR 2020/07/11 15:56 UTC NOAA

Don Miguel / Guadalaj, Mexico (MMGL) 20-31N 103-19W
Jul 11, 2020 - 11:56 AM EDT / 2020.07.11 1556 UTC
Wind: from the NE (050 degrees) at 12 MPH (10 KT):0
Visibility: 10 mile(s):0
Sky conditions: partly cloudy
Temperature: 75 F (24 C)
Dew Point: 53 F (12 C)
Relative Humidity: 46%
Pressure (altimeter): 30.26 in. Hg (1024 hPa)
ob: MMGL 111556Z 05010KT 10SM SCT300 24/12 A3026 RMK 8/001 ISOL AC
cycle: 16

Station Type Date Time Source
MMGL TAF 2020/07/11 12:21 UTC NOAA

TAF TAF MMGL 111018Z 1112/1218 00000KT P6SM SCT030 SCT090 TX28/1120Z TN17/1112Z
FM111900 06010KT P6SM SCT030 BKN300
BECMG 1120/1121 BKN030CB BKN090 BKN300
TEMPO 1122/1202 4SM TSRA
FM120200 12005KT P6SM SCT030 BKN090 PROB40 1202/1206 5SM RA VC TS SCT030CB BKN090
FM120600 10005KT P6SM SCT030 BKN090
TEMPO 1210/1214 BKN030

Example: see airport list